バンクーバー の空港の天気 - METARとTAF

バンクーバー国際空港 ( CYVR / YVR ) - カナダ ブリティッシュコロンビア州バンクーバー
飛行場実況気象(Metar)
観測時間07/22 11:00 PDT (07/22 18:00 UTC)
風向・風速西北西 6m/s
視程10km以上
天気現象
少しの雲 雲底高度 670m
気温22℃
湿度69%
気圧1023hPa
METARCYVR 221800Z 29012KT 30SM FEW022 22/16 A3021 RMK CF1 CF TR SLP230 DENSITY ALT 500FT
過去の天気等 Google飛行場航空写真 Wunderground天気予報

過去48時間のMETAR

飛行場予報(TAF)
発表時間: 7/22 10:38 PDT (7/22 17:38 UTC)
予報対象時間: 22日11時 PDT ~ 23日17時 PDT
風向・風速西北西 5m/s
視程10km以上
少しの雲 雲底高度 300m
22日19時 PDT ~ 22日21時 PDT に徐々に
風向・風速南南西 3m/s
23日2時 PDT から
風向・風速東 3m/s
視程10km以上
なし
23日8時 PDT ~ 23日10時 PDT に徐々に
風向・風速西 5m/s
TAF CYVR 221738Z 2218/2324 30010KT P6SM FEW010
BECMG 2302/2304 21005KT
FM230900 10006KT P6SM SKC
BECMG 2315/2317 27010KT RMK NXT FCST BY 222100Z